Back to Top

Language: 

My Weather Underground Personal Weather Station Historical Data with Graphs...

Delerius Weather Station Historical Data
Daily Summary for December 2, 2017 Units:  Both    English   Metric
« Previous Day
Next Day »
Daily Weekly Monthly Yearly Custom
  High: Low: Average:
Temperature: 46.9 °F /  8.3 °C 38.1 °F /  3.4 °C 44.4 °F /  6.9 °C
Dew Point: 43.6 °F /  6.4 °C 31.5 °F /  -0.3 °C 41 °F /  5 °C
Humidity: 92 % 77 % 88 %
Wind Speed: 9.0 mph /  14.5 km/h - 5.4 mph /  8.7 km/h
Wind Gust: 15.0 mph /  24.1 km/h - -
Wind:- - WNW
Pressure: 30.32 in /  1026.6 hPa 30.25 in /  1024.3 hPa -
Precipitation: 0.00 in /  0 mm    
Historical Graphs
 
 
Tabular Data for December 2, 2017
Time Temperature Dew Point Pressure Wind Wind Speed Wind Gust Humidity Rainfall Rate (Hourly) solar Conditions
00:05 38.3 °F /  3.5 °C 32.0 °F /  0 °C 30.32 in /  1026.6 hPa WNW 4.0 mph /  6.4 km/h 5.0 mph /  8 km/h 78 % 0.00 in /  0 mm 0 W/m2
00:10 38.3 °F /  3.5 °C 32.0 °F /  0 °C 30.32 in /  1026.6 hPa WNW 4.0 mph /  6.4 km/h 6.0 mph /  9.7 km/h 78 % 0.00 in /  0 mm 0 W/m2
00:15 38.3 °F /  3.5 °C 31.7 °F /  -0.2 °C 30.32 in /  1026.6 hPa WNW 3.0 mph /  4.8 km/h 5.0 mph /  8 km/h 77 % 0.00 in /  0 mm 0 W/m2
00:20 38.1 °F /  3.4 °C 31.5 °F /  -0.3 °C 30.32 in /  1026.6 hPa WNW 3.0 mph /  4.8 km/h 6.0 mph /  9.7 km/h 77 % 0.00 in /  0 mm 0 W/m2
00:25 38.1 °F /  3.4 °C 31.5 °F /  -0.3 °C 30.32 in /  1026.6 hPa WNW 2.0 mph /  3.2 km/h 5.0 mph /  8 km/h 77 % 0.00 in /  0 mm 0 W/m2
00:30 38.3 °F /  3.5 °C 31.7 °F /  -0.2 °C 30.32 in /  1026.6 hPa WNW 3.0 mph /  4.8 km/h 6.0 mph /  9.7 km/h 77 % 0.00 in /  0 mm 0 W/m2
00:35 38.1 °F /  3.4 °C 31.5 °F /  -0.3 °C 30.32 in /  1026.6 hPa WNW 1.0 mph /  1.6 km/h 4.0 mph /  6.4 km/h 77 % 0.00 in /  0 mm 0 W/m2
00:40 38.3 °F /  3.5 °C 31.7 °F /  -0.2 °C 30.32 in /  1026.6 hPa WNW 3.0 mph /  4.8 km/h 5.0 mph /  8 km/h 77 % 0.00 in /  0 mm 0 W/m2
00:45 38.3 °F /  3.5 °C 32.0 °F /  0 °C 30.32 in /  1026.6 hPa WNW 1.0 mph /  1.6 km/h 4.0 mph /  6.4 km/h 78 % 0.00 in /  0 mm 0 W/m2
00:50 38.1 °F /  3.4 °C 31.9 °F /  -0.1 °C 30.32 in /  1026.6 hPa Calm   2.0 mph /  3.2 km/h 78 % 0.00 in /  0 mm 0 W/m2
00:55 38.1 °F /  3.4 °C 31.9 °F /  -0.1 °C 30.32 in /  1026.6 hPa Calm   1.0 mph /  1.6 km/h 78 % 0.00 in /  0 mm 0 W/m2
01:05 38.1 °F /  3.4 °C 31.9 °F /  -0.1 °C 30.32 in /  1026.6 hPa WNW 1.0 mph /  1.6 km/h 2.0 mph /  3.2 km/h 78 % 0.00 in /  0 mm 0 W/m2
01:10 38.3 °F /  3.5 °C 32.0 °F /  0 °C 30.32 in /  1026.6 hPa Calm   1.0 mph /  1.6 km/h 78 % 0.00 in /  0 mm 0 W/m2
01:20 38.3 °F /  3.5 °C 32.0 °F /  0 °C 30.32 in /  1026.6 hPa Calm   3.0 mph /  4.8 km/h 78 % 0.00 in /  0 mm 0 W/m2
11:30 46.2 °F /  7.9 °C 42.9 °F /  6.1 °C 30.28 in /  1025.3 hPa NW 6.0 mph /  9.7 km/h 7.0 mph /  11.3 km/h 88 % 0.00 in /  0 mm 109 W/m2
11:31 46.2 °F /  7.9 °C 42.9 °F /  6.1 °C 30.28 in /  1025.3 hPa WNW 7.0 mph /  11.3 km/h 9.0 mph /  14.5 km/h 88 % 0.00 in /  0 mm 109 W/m2
11:32 46.2 °F /  7.9 °C 42.9 °F /  6.1 °C 30.28 in /  1025.3 hPa WNW 7.0 mph /  11.3 km/h 9.0 mph /  14.5 km/h 88 % 0.00 in /  0 mm 113 W/m2
11:37 46.2 °F /  7.9 °C 42.9 °F /  6.1 °C 30.28 in /  1025.3 hPa WNW 7.0 mph /  11.3 km/h 11.0 mph /  17.7 km/h 88 % 0.00 in /  0 mm 132 W/m2
11:42 46.2 °F /  7.9 °C 42.9 °F /  6.1 °C 30.28 in /  1025.3 hPa WNW 6.0 mph /  9.7 km/h 9.0 mph /  14.5 km/h 88 % 0.00 in /  0 mm 134 W/m2
11:52 46.4 °F /  8 °C 43.0 °F /  6.1 °C 30.28 in /  1025.3 hPa WNW 7.0 mph /  11.3 km/h 10.0 mph /  16.1 km/h 88 % 0.00 in /  0 mm 149 W/m2
11:57 46.6 °F /  8.1 °C 43.2 °F /  6.2 °C 30.28 in /  1025.3 hPa WNW 8.0 mph /  12.9 km/h 12.0 mph /  19.3 km/h 88 % 0.00 in /  0 mm 135 W/m2
12:17 46.6 °F /  8.1 °C 42.9 °F /  6.1 °C 30.27 in /  1024.9 hPa WNW 8.0 mph /  12.9 km/h 12.0 mph /  19.3 km/h 87 % 0.00 in /  0 mm 128 W/m2
12:22 46.6 °F /  8.1 °C 42.9 °F /  6.1 °C 30.27 in /  1024.9 hPa NW 7.0 mph /  11.3 km/h 11.0 mph /  17.7 km/h 87 % 0.00 in /  0 mm 158 W/m2
12:27 46.6 °F /  8.1 °C 43.2 °F /  6.2 °C 30.27 in /  1024.9 hPa WNW 8.0 mph /  12.9 km/h 11.0 mph /  17.7 km/h 88 % 0.00 in /  0 mm 165 W/m2
12:32 46.8 °F /  8.2 °C 43.4 °F /  6.3 °C 30.26 in /  1024.6 hPa WNW 6.0 mph /  9.7 km/h 10.0 mph /  16.1 km/h 88 % 0.00 in /  0 mm 160 W/m2
12:37 46.9 °F /  8.3 °C 43.6 °F /  6.4 °C 30.27 in /  1024.9 hPa WNW 8.0 mph /  12.9 km/h 12.0 mph /  19.3 km/h 88 % 0.00 in /  0 mm 116 W/m2
12:47 46.9 °F /  8.3 °C 43.3 °F /  6.3 °C 30.26 in /  1024.6 hPa NW 7.0 mph /  11.3 km/h 10.0 mph /  16.1 km/h 87 % 0.00 in /  0 mm 97 W/m2
12:52 46.9 °F /  8.3 °C 43.3 °F /  6.3 °C 30.26 in /  1024.6 hPa WNW 7.0 mph /  11.3 km/h 10.0 mph /  16.1 km/h 87 % 0.00 in /  0 mm 93 W/m2
12:57 46.9 °F /  8.3 °C 43.3 °F /  6.3 °C 30.26 in /  1024.6 hPa WNW 6.0 mph /  9.7 km/h 10.0 mph /  16.1 km/h 87 % 0.00 in /  0 mm 79 W/m2
13:02 46.9 °F /  8.3 °C 43.3 °F /  6.3 °C 30.27 in /  1024.9 hPa WNW 8.0 mph /  12.9 km/h 11.0 mph /  17.7 km/h 87 % 0.00 in /  0 mm 86 W/m2
13:07 46.9 °F /  8.3 °C 43.3 °F /  6.3 °C 30.26 in /  1024.6 hPa WNW 7.0 mph /  11.3 km/h 10.0 mph /  16.1 km/h 87 % 0.00 in /  0 mm 88 W/m2
13:12 46.9 °F /  8.3 °C 43.3 °F /  6.3 °C 30.26 in /  1024.6 hPa WNW 6.0 mph /  9.7 km/h 11.0 mph /  17.7 km/h 87 % 0.00 in /  0 mm 90 W/m2
13:17 46.9 °F /  8.3 °C 43.3 °F /  6.3 °C 30.26 in /  1024.6 hPa WNW 8.0 mph /  12.9 km/h 11.0 mph /  17.7 km/h 87 % 0.00 in /  0 mm 70 W/m2
13:22 46.9 °F /  8.3 °C 43.3 °F /  6.3 °C 30.26 in /  1024.6 hPa NW 5.0 mph /  8 km/h 7.0 mph /  11.3 km/h 87 % 0.00 in /  0 mm 58 W/m2
13:27 46.9 °F /  8.3 °C 43.3 °F /  6.3 °C 30.26 in /  1024.6 hPa WNW 7.0 mph /  11.3 km/h 9.0 mph /  14.5 km/h 87 % 0.00 in /  0 mm 56 W/m2
13:32 46.9 °F /  8.3 °C 43.3 °F /  6.3 °C 30.26 in /  1024.6 hPa WNW 6.0 mph /  9.7 km/h 9.0 mph /  14.5 km/h 87 % 0.00 in /  0 mm 69 W/m2
13:42 46.9 °F /  8.3 °C 43.6 °F /  6.4 °C 30.26 in /  1024.6 hPa WNW 5.0 mph /  8 km/h 7.0 mph /  11.3 km/h 88 % 0.00 in /  0 mm 72 W/m2
13:47 46.8 °F /  8.2 °C 43.4 °F /  6.3 °C 30.26 in /  1024.6 hPa WNW 8.0 mph /  12.9 km/h 11.0 mph /  17.7 km/h 88 % 0.00 in /  0 mm 72 W/m2
13:52 46.8 °F /  8.2 °C 43.4 °F /  6.3 °C 30.26 in /  1024.6 hPa WNW 6.0 mph /  9.7 km/h 8.0 mph /  12.9 km/h 88 % 0.00 in /  0 mm 81 W/m2
13:57 46.8 °F /  8.2 °C 43.4 °F /  6.3 °C 30.26 in /  1024.6 hPa WNW 6.0 mph /  9.7 km/h 7.0 mph /  11.3 km/h 88 % 0.00 in /  0 mm 77 W/m2
14:02 46.9 °F /  8.3 °C 43.6 °F /  6.4 °C 30.26 in /  1024.6 hPa WNW 5.0 mph /  8 km/h 8.0 mph /  12.9 km/h 88 % 0.00 in /  0 mm 74 W/m2
14:08 46.8 °F /  8.2 °C 43.4 °F /  6.3 °C 30.26 in /  1024.6 hPa WNW 8.0 mph /  12.9 km/h 11.0 mph /  17.7 km/h 88 % 0.00 in /  0 mm 65 W/m2
14:13 46.8 °F /  8.2 °C 43.4 °F /  6.3 °C 30.26 in /  1024.6 hPa WNW 8.0 mph /  12.9 km/h 12.0 mph /  19.3 km/h 88 % 0.00 in /  0 mm 76 W/m2
14:18 46.8 °F /  8.2 °C 43.4 °F /  6.3 °C 30.26 in /  1024.6 hPa WNW 8.0 mph /  12.9 km/h 11.0 mph /  17.7 km/h 88 % 0.00 in /  0 mm 81 W/m2
14:23 46.8 °F /  8.2 °C 43.4 °F /  6.3 °C 30.26 in /  1024.6 hPa WNW 8.0 mph /  12.9 km/h 13.0 mph /  20.9 km/h 88 % 0.00 in /  0 mm 74 W/m2
14:28 46.8 °F /  8.2 °C 43.1 °F /  6.2 °C 30.26 in /  1024.6 hPa WNW 8.0 mph /  12.9 km/h 12.0 mph /  19.3 km/h 87 % 0.00 in /  0 mm 67 W/m2
14:33 46.6 °F /  8.1 °C 42.9 °F /  6.1 °C 30.26 in /  1024.6 hPa WNW 7.0 mph /  11.3 km/h 10.0 mph /  16.1 km/h 87 % 0.00 in /  0 mm 58 W/m2
14:38 46.6 °F /  8.1 °C 43.2 °F /  6.2 °C 30.26 in /  1024.6 hPa WNW 6.0 mph /  9.7 km/h 11.0 mph /  17.7 km/h 88 % 0.00 in /  0 mm 63 W/m2
14:43 46.6 °F /  8.1 °C 42.9 °F /  6.1 °C 30.26 in /  1024.6 hPa WNW 8.0 mph /  12.9 km/h 11.0 mph /  17.7 km/h 87 % 0.00 in /  0 mm 37 W/m2
14:53 46.6 °F /  8.1 °C 42.9 °F /  6.1 °C 30.26 in /  1024.6 hPa WNW 6.0 mph /  9.7 km/h 9.0 mph /  14.5 km/h 87 % 0.00 in /  0 mm 28 W/m2
15:03 46.4 °F /  8 °C 43.0 °F /  6.1 °C 30.26 in /  1024.6 hPa WNW 6.0 mph /  9.7 km/h 9.0 mph /  14.5 km/h 88 % 0.00 in /  0 mm 35 W/m2
15:08 46.2 °F /  7.9 °C 42.9 °F /  6.1 °C 30.26 in /  1024.6 hPa WNW 5.0 mph /  8 km/h 7.0 mph /  11.3 km/h 88 % 0.00 in /  0 mm 33 W/m2
15:13 46.2 °F /  7.9 °C 42.9 °F /  6.1 °C 30.26 in /  1024.6 hPa WNW 6.0 mph /  9.7 km/h 9.0 mph /  14.5 km/h 88 % 0.00 in /  0 mm 28 W/m2
15:23 46.0 °F /  7.8 °C 42.7 °F /  5.9 °C 30.26 in /  1024.6 hPa WNW 5.0 mph /  8 km/h 8.0 mph /  12.9 km/h 88 % 0.00 in /  0 mm 21 W/m2
15:33 46.0 °F /  7.8 °C 42.7 °F /  5.9 °C 30.26 in /  1024.6 hPa WNW 3.0 mph /  4.8 km/h 5.0 mph /  8 km/h 88 % 0.00 in /  0 mm 14 W/m2
15:38 45.9 °F /  7.7 °C 42.5 °F /  5.8 °C 30.26 in /  1024.6 hPa WNW 4.0 mph /  6.4 km/h 6.0 mph /  9.7 km/h 88 % 0.00 in /  0 mm 11 W/m2
15:43 45.7 °F /  7.6 °C 42.3 °F /  5.7 °C 30.26 in /  1024.6 hPa WNW 5.0 mph /  8 km/h 7.0 mph /  11.3 km/h 88 % 0.00 in /  0 mm 9 W/m2
15:48 45.3 °F /  7.4 °C 42.0 °F /  5.6 °C 30.26 in /  1024.6 hPa WNW 4.0 mph /  6.4 km/h 6.0 mph /  9.7 km/h 88 % 0.00 in /  0 mm 11 W/m2
15:58 45.0 °F /  7.2 °C 41.6 °F /  5.3 °C 30.25 in /  1024.3 hPa WNW 3.0 mph /  4.8 km/h 5.0 mph /  8 km/h 88 % 0.00 in /  0 mm 0 W/m2
16:03 44.8 °F /  7.1 °C 41.4 °F /  5.2 °C 30.25 in /  1024.3 hPa WNW 2.0 mph /  3.2 km/h 5.0 mph /  8 km/h 88 % 0.00 in /  0 mm 0 W/m2
16:13 44.2 °F /  6.8 °C 40.9 °F /  4.9 °C 30.26 in /  1024.6 hPa WNW 4.0 mph /  6.4 km/h 6.0 mph /  9.7 km/h 88 % 0.00 in /  0 mm 0 W/m2
16:18 44.1 °F /  6.7 °C 41.0 °F /  5 °C 30.26 in /  1024.6 hPa WNW 4.0 mph /  6.4 km/h 6.0 mph /  9.7 km/h 89 % 0.00 in /  0 mm 0 W/m2
16:28 43.5 °F /  6.4 °C 40.5 °F /  4.7 °C 30.26 in /  1024.6 hPa WNW 4.0 mph /  6.4 km/h 6.0 mph /  9.7 km/h 89 % 0.00 in /  0 mm 0 W/m2
16:33 43.3 °F /  6.3 °C 40.3 °F /  4.6 °C 30.25 in /  1024.3 hPa WNW 3.0 mph /  4.8 km/h 6.0 mph /  9.7 km/h 89 % 0.00 in /  0 mm 0 W/m2
16:38 43.2 °F /  6.2 °C 40.1 °F /  4.5 °C 30.25 in /  1024.3 hPa WNW 4.0 mph /  6.4 km/h 5.0 mph /  8 km/h 89 % 0.00 in /  0 mm 0 W/m2
16:43 43.0 °F /  6.1 °C 40.0 °F /  4.4 °C 30.25 in /  1024.3 hPa WNW 5.0 mph /  8 km/h 7.0 mph /  11.3 km/h 89 % 0.00 in /  0 mm 0 W/m2
16:48 42.6 °F /  5.9 °C 39.6 °F /  4.2 °C 30.26 in /  1024.6 hPa WNW 5.0 mph /  8 km/h 7.0 mph /  11.3 km/h 89 % 0.00 in /  0 mm 0 W/m2
16:53 42.6 °F /  5.9 °C 39.6 °F /  4.2 °C 30.26 in /  1024.6 hPa WNW 5.0 mph /  8 km/h 7.0 mph /  11.3 km/h 89 % 0.00 in /  0 mm 0 W/m2
16:58 42.6 °F /  5.9 °C 39.9 °F /  4.4 °C 30.26 in /  1024.6 hPa WNW 4.0 mph /  6.4 km/h 7.0 mph /  11.3 km/h 90 % 0.00 in /  0 mm 0 W/m2
17:12 42.6 °F /  5.9 °C 39.9 °F /  4.4 °C 30.25 in /  1024.3 hPa WNW 4.0 mph /  6.4 km/h 6.0 mph /  9.7 km/h 90 % 0.00 in /  0 mm 0 W/m2
17:17 42.6 °F /  5.9 °C 39.9 °F /  4.4 °C 30.26 in /  1024.6 hPa WNW 4.0 mph /  6.4 km/h 6.0 mph /  9.7 km/h 90 % 0.00 in /  0 mm 0 W/m2
17:22 42.8 °F /  6 °C 40.1 °F /  4.5 °C 30.25 in /  1024.3 hPa West 2.0 mph /  3.2 km/h 4.0 mph /  6.4 km/h 90 % 0.00 in /  0 mm 0 W/m2
17:27 43.0 °F /  6.1 °C 40.2 °F /  4.6 °C 30.25 in /  1024.3 hPa West 3.0 mph /  4.8 km/h 5.0 mph /  8 km/h 90 % 0.00 in /  0 mm 0 W/m2
17:32 43.0 °F /  6.1 °C 40.2 °F /  4.6 °C 30.25 in /  1024.3 hPa WNW 4.0 mph /  6.4 km/h 6.0 mph /  9.7 km/h 90 % 0.00 in /  0 mm 0 W/m2
17:42 43.5 °F /  6.4 °C 41.1 °F /  5.1 °C 30.26 in /  1024.6 hPa WNW 6.0 mph /  9.7 km/h 8.0 mph /  12.9 km/h 91 % 0.00 in /  0 mm 0 W/m2
17:47 43.7 °F /  6.5 °C 41.0 °F /  5 °C 30.26 in /  1024.6 hPa WNW 5.0 mph /  8 km/h 7.0 mph /  11.3 km/h 90 % 0.00 in /  0 mm 0 W/m2
17:57 43.9 °F /  6.6 °C 41.1 °F /  5.1 °C 30.26 in /  1024.6 hPa NW 4.0 mph /  6.4 km/h 9.0 mph /  14.5 km/h 90 % 0.00 in /  0 mm 0 W/m2
18:02 44.1 °F /  6.7 °C 41.3 °F /  5.2 °C 30.26 in /  1024.6 hPa NW 3.0 mph /  4.8 km/h 5.0 mph /  8 km/h 90 % 0.00 in /  0 mm 0 W/m2
18:07 44.1 °F /  6.7 °C 41.3 °F /  5.2 °C 30.26 in /  1024.6 hPa WNW 5.0 mph /  8 km/h 7.0 mph /  11.3 km/h 90 % 0.00 in /  0 mm 0 W/m2
18:23 44.4 °F /  6.9 °C 41.7 °F /  5.4 °C 30.26 in /  1024.6 hPa WNW 6.0 mph /  9.7 km/h 9.0 mph /  14.5 km/h 90 % 0.00 in /  0 mm 0 W/m2
18:33 44.6 °F /  7 °C 41.8 °F /  5.4 °C 30.26 in /  1024.6 hPa WNW 5.0 mph /  8 km/h 8.0 mph /  12.9 km/h 90 % 0.00 in /  0 mm 0 W/m2
18:38 44.6 °F /  7 °C 41.8 °F /  5.4 °C 30.26 in /  1024.6 hPa WNW 5.0 mph /  8 km/h 7.0 mph /  11.3 km/h 90 % 0.00 in /  0 mm 0 W/m2
18:43 44.8 °F /  7.1 °C 42.0 °F /  5.6 °C 30.26 in /  1024.6 hPa West 5.0 mph /  8 km/h 7.0 mph /  11.3 km/h 90 % 0.00 in /  0 mm 0 W/m2
18:48 44.8 °F /  7.1 °C 42.0 °F /  5.6 °C 30.26 in /  1024.6 hPa West 5.0 mph /  8 km/h 9.0 mph /  14.5 km/h 90 % 0.00 in /  0 mm 0 W/m2
19:13 45.0 °F /  7.2 °C 42.2 °F /  5.7 °C 30.26 in /  1024.6 hPa WNW 6.0 mph /  9.7 km/h 9.0 mph /  14.5 km/h 90 % 0.00 in /  0 mm 0 W/m2
19:23 44.8 °F /  7.1 °C 42.0 °F /  5.6 °C 30.26 in /  1024.6 hPa WNW 6.0 mph /  9.7 km/h 10.0 mph /  16.1 km/h 90 % 0.00 in /  0 mm 0 W/m2
19:28 44.8 °F /  7.1 °C 42.0 °F /  5.6 °C 30.26 in /  1024.6 hPa WNW 5.0 mph /  8 km/h 8.0 mph /  12.9 km/h 90 % 0.00 in /  0 mm 0 W/m2
19:33 44.8 °F /  7.1 °C 42.0 °F /  5.6 °C 30.26 in /  1024.6 hPa WNW 6.0 mph /  9.7 km/h 8.0 mph /  12.9 km/h 90 % 0.00 in /  0 mm 0 W/m2
19:38 44.6 °F /  7 °C 41.8 °F /  5.4 °C 30.26 in /  1024.6 hPa WNW 4.0 mph /  6.4 km/h 7.0 mph /  11.3 km/h 90 % 0.00 in /  0 mm 0 W/m2
19:43 44.4 °F /  6.9 °C 41.7 °F /  5.4 °C 30.26 in /  1024.6 hPa WNW 4.0 mph /  6.4 km/h 6.0 mph /  9.7 km/h 90 % 0.00 in /  0 mm 0 W/m2
19:48 44.2 °F /  6.8 °C 41.5 °F /  5.3 °C 30.26 in /  1024.6 hPa WNW 4.0 mph /  6.4 km/h 6.0 mph /  9.7 km/h 90 % 0.00 in /  0 mm 0 W/m2
19:53 44.2 °F /  6.8 °C 41.5 °F /  5.3 °C 30.26 in /  1024.6 hPa WNW 4.0 mph /  6.4 km/h 6.0 mph /  9.7 km/h 90 % 0.00 in /  0 mm 0 W/m2
19:58 44.1 °F /  6.7 °C 41.3 °F /  5.2 °C 30.25 in /  1024.3 hPa WNW 4.0 mph /  6.4 km/h 5.0 mph /  8 km/h 90 % 0.00 in /  0 mm 0 W/m2
20:03 44.1 °F /  6.7 °C 41.3 °F /  5.2 °C 30.25 in /  1024.3 hPa WNW 3.0 mph /  4.8 km/h 5.0 mph /  8 km/h 90 % 0.00 in /  0 mm 0 W/m2
20:18 43.7 °F /  6.5 °C 41.2 °F /  5.1 °C 30.25 in /  1024.3 hPa WNW 3.0 mph /  4.8 km/h 5.0 mph /  8 km/h 91 % 0.00 in /  0 mm 0 W/m2
20:28 43.5 °F /  6.4 °C 41.1 °F /  5.1 °C 30.25 in /  1024.3 hPa WNW 3.0 mph /  4.8 km/h 5.0 mph /  8 km/h 91 % 0.00 in /  0 mm 0 W/m2
20:43 43.3 °F /  6.3 °C 40.9 °F /  4.9 °C 30.25 in /  1024.3 hPa WNW 4.0 mph /  6.4 km/h 7.0 mph /  11.3 km/h 91 % 0.00 in /  0 mm 0 W/m2
20:48 43.5 °F /  6.4 °C 41.4 °F /  5.2 °C 30.25 in /  1024.3 hPa WNW 3.0 mph /  4.8 km/h 6.0 mph /  9.7 km/h 92 % 0.00 in /  0 mm 0 W/m2
20:58 43.7 °F /  6.5 °C 41.5 °F /  5.3 °C 30.25 in /  1024.3 hPa WNW 4.0 mph /  6.4 km/h 6.0 mph /  9.7 km/h 92 % 0.00 in /  0 mm 0 W/m2
21:03 43.7 °F /  6.5 °C 41.5 °F /  5.3 °C 30.25 in /  1024.3 hPa WNW 4.0 mph /  6.4 km/h 6.0 mph /  9.7 km/h 92 % 0.00 in /  0 mm 0 W/m2
21:08 43.7 °F /  6.5 °C 41.5 °F /  5.3 °C 30.25 in /  1024.3 hPa WNW 3.0 mph /  4.8 km/h 5.0 mph /  8 km/h 92 % 0.00 in /  0 mm 0 W/m2
21:18 43.7 °F /  6.5 °C 41.5 °F /  5.3 °C 30.25 in /  1024.3 hPa WNW 6.0 mph /  9.7 km/h 8.0 mph /  12.9 km/h 92 % 0.00 in /  0 mm 0 W/m2
21:23 43.9 °F /  6.6 °C 41.7 °F /  5.4 °C 30.25 in /  1024.3 hPa WNW 6.0 mph /  9.7 km/h 9.0 mph /  14.5 km/h 92 % 0.00 in /  0 mm 0 W/m2
21:28 43.9 °F /  6.6 °C 41.7 °F /  5.4 °C 30.25 in /  1024.3 hPa WNW 5.0 mph /  8 km/h 8.0 mph /  12.9 km/h 92 % 0.00 in /  0 mm 0 W/m2
21:48 44.2 °F /  6.8 °C 41.8 °F /  5.4 °C 30.25 in /  1024.3 hPa WNW 6.0 mph /  9.7 km/h 10.0 mph /  16.1 km/h 91 % 0.00 in /  0 mm 0 W/m2
21:53 44.2 °F /  6.8 °C 41.8 °F /  5.4 °C 30.25 in /  1024.3 hPa WNW 6.0 mph /  9.7 km/h 9.0 mph /  14.5 km/h 91 % 0.00 in /  0 mm 0 W/m2
22:03 44.6 °F /  7 °C 42.1 °F /  5.6 °C 30.25 in /  1024.3 hPa WNW 8.0 mph /  12.9 km/h 15.0 mph /  24.1 km/h 91 % 0.00 in /  0 mm 0 W/m2
22:08 44.8 °F /  7.1 °C 42.3 °F /  5.7 °C 30.25 in /  1024.3 hPa WNW 8.0 mph /  12.9 km/h 12.0 mph /  19.3 km/h 91 % 0.00 in /  0 mm 0 W/m2
22:13 44.8 °F /  7.1 °C 42.3 °F /  5.7 °C 30.25 in /  1024.3 hPa WNW 7.0 mph /  11.3 km/h 12.0 mph /  19.3 km/h 91 % 0.00 in /  0 mm 0 W/m2
22:15 44.8 °F /  7.1 °C 42.3 °F /  5.7 °C 30.25 in /  1024.3 hPa WNW 7.0 mph /  11.3 km/h 12.0 mph /  19.3 km/h 91 % 0.00 in /  0 mm 0 W/m2
22:20 45.0 °F /  7.2 °C 42.5 °F /  5.8 °C 30.25 in /  1024.3 hPa WNW 9.0 mph /  14.5 km/h 12.0 mph /  19.3 km/h 91 % 0.00 in /  0 mm 0 W/m2
22:25 45.1 °F /  7.3 °C 42.7 °F /  5.9 °C 30.25 in /  1024.3 hPa WNW 7.0 mph /  11.3 km/h 10.0 mph /  16.1 km/h 91 % 0.00 in /  0 mm 0 W/m2
22:30 45.1 °F /  7.3 °C 42.7 °F /  5.9 °C 30.25 in /  1024.3 hPa WNW 8.0 mph /  12.9 km/h 12.0 mph /  19.3 km/h 91 % 0.00 in /  0 mm 0 W/m2
22:40 45.3 °F /  7.4 °C 42.8 °F /  6 °C 30.25 in /  1024.3 hPa WNW 8.0 mph /  12.9 km/h 13.0 mph /  20.9 km/h 91 % 0.00 in /  0 mm 0 W/m2
22:45 45.3 °F /  7.4 °C 42.8 °F /  6 °C 30.25 in /  1024.3 hPa WNW 8.0 mph /  12.9 km/h 15.0 mph /  24.1 km/h 91 % 0.00 in /  0 mm 0 W/m2
22:50 45.5 °F /  7.5 °C 43.0 °F /  6.1 °C 30.25 in /  1024.3 hPa WNW 8.0 mph /  12.9 km/h 11.0 mph /  17.7 km/h 91 % 0.00 in /  0 mm 0 W/m2
23:00 45.7 °F /  7.6 °C 42.9 °F /  6.1 °C 30.25 in /  1024.3 hPa WNW 7.0 mph /  11.3 km/h 12.0 mph /  19.3 km/h 90 % 0.00 in /  0 mm 0 W/m2
23:10 45.7 °F /  7.6 °C 42.9 °F /  6.1 °C 30.25 in /  1024.3 hPa WNW 8.0 mph /  12.9 km/h 11.0 mph /  17.7 km/h 90 % 0.00 in /  0 mm 0 W/m2
23:15 45.7 °F /  7.6 °C 42.9 °F /  6.1 °C 30.25 in /  1024.3 hPa WNW 8.0 mph /  12.9 km/h 12.0 mph /  19.3 km/h 90 % 0.00 in /  0 mm 0 W/m2
23:20 45.9 °F /  7.7 °C 43.1 °F /  6.2 °C 30.25 in /  1024.3 hPa WNW 7.0 mph /  11.3 km/h 13.0 mph /  20.9 km/h 90 % 0.00 in /  0 mm 0 W/m2
23:25 45.9 °F /  7.7 °C 43.1 °F /  6.2 °C 30.25 in /  1024.3 hPa NW 7.0 mph /  11.3 km/h 12.0 mph /  19.3 km/h 90 % 0.00 in /  0 mm 0 W/m2
23:30 45.9 °F /  7.7 °C 43.4 °F /  6.3 °C 30.25 in /  1024.3 hPa WNW 9.0 mph /  14.5 km/h 12.0 mph /  19.3 km/h 91 % 0.00 in /  0 mm 0 W/m2
23:35 45.9 °F /  7.7 °C 43.1 °F /  6.2 °C 30.25 in /  1024.3 hPa WNW 9.0 mph /  14.5 km/h 12.0 mph /  19.3 km/h 90 % 0.00 in /  0 mm 0 W/m2
23:45 45.9 °F /  7.7 °C 43.1 °F /  6.2 °C 30.25 in /  1024.3 hPa WNW 8.0 mph /  12.9 km/h 11.0 mph /  17.7 km/h 90 % 0.00 in /  0 mm 0 W/m2
23:50 45.9 °F /  7.7 °C 43.1 °F /  6.2 °C 30.25 in /  1024.3 hPa WNW 8.0 mph /  12.9 km/h 11.0 mph /  17.7 km/h 90 % 0.00 in /  0 mm 0 W/m2
Delerius-Weather
Compliments of Weather Underground - 1.25 mb

Data updates at regular intervals.